Weather observations for the past three days for
Windom Municipal Airport
Metric (Imperial)
Date Time (cdt) Wind (kph) Vis. (km) Weather Sky Cond. Temperature (ºC) Relative Humidity Wind Chill (°C) Heat Index (°C) Pressure Precipitation (cm)
Air Dwpt 6 hour altimeter (cm) sea level (mb) 1 hr 3 hr 6 hr
Max. Min.
05 19:15 E 7 16.09 Fair CLR 27 22 74% 29 76.2 0.0
05 18:55 SE 13 16.09 Fair CLR 28 22 70% 31 76.17 0.0
05 18:35 SE 11 16.09 Fair CLR 28 21 66% 30 76.2 0.0
05 18:15 SE 13 16.09 Fair CLR 28 21 66% 30 76.17 0.0
05 17:55 SE 13 16.09 Fair CLR 29 21 62% 31 76.17 0.0
05 17:35 E 13 16.09 Fair CLR 28 21 66% 30 76.15 0.0
05 17:15 E 17 16.09 Fair CLR 29 21 62% 31 76.15 0.0
05 16:55 E 15 16.09 Fair CLR 29 21 62% 31 76.12 0.0
05 16:35 E 15 16.09 Fair CLR 29 20 58% 31 76.15 0.0
05 16:15 E 13 16.09 Fair CLR 28 21 66% 30 76.15 0.0
05 15:55 E 20 16.09 Fair CLR 28 20 62% 30 76.15 0.0
05 15:35 E 17 G 26 16.09 Fair CLR 28 19 58% 29 76.12 0.0
05 15:15 E 19 16.09 Fair CLR 28 19 58% 29 76.12 0.0
05 12:55 NE 11 16.09 Fair CLR 29 18 51% 30 76.17 0.0
05 12:35 NE 11 16.09 Fair CLR 29 18 51% 30 76.17 0.0
05 12:15 Calm 16.09 Fair CLR 28 17 51% 29 76.2 0.0
05 11:55 Calm 16.09 Fair CLR 27 17 54% 28 76.17 0.0
05 11:35 SE 17 16.09 Fair CLR 26 17 58% 27 76.17 0.0
05 11:15 SE 13 G 30 16.09 Fair CLR 25 17 61% 26 76.17 0.0
05 10:55 S 31 G 46 16.09 Fair CLR 24 17 65% 25 76.15 0.0
05 10:35 S 43 G 59 16.09 Light Rain and Windy CLR 24 16 61% 25 76.07 0.0
05 10:15 S 28 G 50 16.09 Light Rain SCT050 24 16 61% 25 76.17 0.0
05 09:55 SW 43 G 56 16.09 Light Rain and Windy SCT065 23 17 69% 76.23 0.0
05 09:35 SW 31 G 43 16.09 Light Rain SCT026 SCT040 BKN050 22 18 78% 76.3 0.0
05 09:15 W 33 G 46 16.09 Light Rain and Breezy SCT023 SCT038 BKN055 22 20 88% 76.33 0.0
05 08:55 SW 22 G 31 16.09 Light Rain SCT003 SCT019 SCT049 22 22 100% 76.35 0.0
05 08:35 SW 15 6.44 Light Rain BKN003 BKN029 OVC033 22 22 100% 76.35 0.0
05 08:15 SW 11 8.05 Light Rain OVC003 22 21 94% 76.3 0.0
05 07:55 SW 6 11.27 Light Rain OVC003 22 21 94% 76.3 0.0
05 07:35 Calm 16.09 Thunderstorm in Vicinity OVC003 22 21 94% 76.25 0.0
05 07:15 Calm 16.09 Overcast OVC003 22 21 94% 76.23 0.0
05 06:55 E 6 16.09 Mostly Cloudy BKN005 22 21 94% 76.2 0.0
05 06:35 Calm 16.09 Light Rain SCT005 22 21 94% 76.17 0.0
05 06:15 Calm 16.09 Mostly Cloudy BKN005 22 21 94% 76.17 0.0
05 05:55 E 6 16.09 Overcast OVC005 22 21 94% 76.17 0.0
05 05:35 E 6 16.09 Mostly Cloudy BKN005 22 21 94% 76.17 0.0
05 05:15 E 9 16.09 Mostly Cloudy BKN007 22 21 94% 76.12 0.0
05 04:55 E 7 16.09 Overcast OVC007 21 21 100% 76.12 0.0
05 04:35 NE 13 16.09 Partly Cloudy SCT007 21 21 100% 76.12 0.0
05 04:15 NE 9 16.09 Fair CLR 21 21 100% 76.12 0.0
05 03:55 NE 11 11.27 Fair CLR 22 21 94% 76.12 0.0
05 03:35 NE 7 11.27 Fair CLR 22 21 94% 76.07 0.0
05 03:15 NE 11 11.27 Fair CLR 22 21 94% 76.1 0.0
05 02:55 NE 11 11.27 Fair CLR 22 21 94% 76.12 0.0
05 02:35 NE 9 16.09 Fair CLR 22 22 100% 76.15 0.0
05 02:15 NE 9 16.09 Fair CLR 22 22 100% 76.12 0.0
05 01:55 NE 9 16.09 Fair CLR 23 22 94% 76.12 0.0
05 01:35 NE 6 16.09 Fair CLR 23 22 94% 76.12 0.0
05 01:15 E 7 16.09 Fair CLR 22 21 94% 76.12 0.0
05 00:55 NE 6 16.09 Fair CLR 23 22 94% 76.15 0.0
05 00:35 NE 7 16.09 Fair CLR 23 22 94% 76.12 0.0
05 00:15 E 7 16.09 Fair CLR 23 22 94% 76.1 0.0
04 23:55 E 7 16.09 Fair CLR 23 22 94% 76.12 0.0
04 23:35 E 9 16.09 Partly Cloudy SCT014 23 22 94% 76.1 0.0
04 23:15 E 7 16.09 Partly Cloudy SCT014 24 22 89% 24 76.12 0.0
04 22:55 NE 9 16.09 Fair CLR 24 23 94% 23 76.15 0.0
04 22:35 NE 11 16.09 Fair CLR 24 23 94% 23 76.12 0.0
04 22:15 NE 11 16.09 Fair CLR 24 23 94% 23 76.1 0.0
04 21:55 NE 11 16.09 Fair CLR 24 23 94% 23 76.1 0.0
04 21:35 NE 7 16.09 Fair CLR 25 23 89% 26 76.1 0.0
04 21:15 NE 9 16.09 Fair CLR 26 23 84% 28 76.07 0.0
04 20:55 NE 7 16.09 Fair CLR 26 23 84% 28 76.05 0.0
04 20:35 NE 9 16.09 Fair CLR 26 23 84% 28 76.05 0.0
04 20:15 NE 6 16.09 Fair CLR 27 23 79% 30 76.02 0.0
04 19:55 NE 11 16.09 Fair CLR 27 23 79% 30 76.02 0.0
04 19:35 NE 11 16.09 Fair CLR 28 23 74% 31 76.02 0.0
04 19:15 NE 11 16.09 Fair CLR 29 24 74% 34 76.02 0.0
04 18:55 N 9 16.09 Fair CLR 31 24 66% 37 76 0.0
04 18:35 NE 9 16.09 Fair CLR 32 24 63% 38 76 0.0
04 18:15 NE 11 16.09 Fair CLR 32 24 63% 38 76 0.0
04 17:55 NE 11 16.09 Fair CLR 33 24 59% 39 76 0.0
04 17:35 NE 11 16.09 Fair CLR 33 24 59% 39 75.97 0.0
04 17:15 NE 13 16.09 Fair CLR 33 24 59% 39 75.95 0.0
04 16:55 NE 13 16.09 Fair CLR 33 24 59% 39 75.95 0.0
04 16:35 NE 15 16.09 Fair CLR 33 24 59% 39 75.95 0.0
04 16:15 NE 11 16.09 Fair CLR 33 24 59% 39 75.97 0.0
04 15:55 NE 6 16.09 Fair CLR 33 23 56% 38 75.97 0.0
04 15:35 NE 11 16.09 Fair CLR 33 23 56% 38 75.97 0.0
04 15:15 N 9 16.09 Fair CLR 33 23 56% 38 75.97 0.0
04 14:55 N 17 16.09 Fair CLR 33 23 56% 38 75.97 0.0
04 14:35 NE 9 16.09 Fair CLR 33 23 56% 38 75.97 0.0
04 14:15 NE 7 16.09 Fair CLR 32 23 59% 37 75.97 0.0
04 13:55 NE 15 16.09 Fair CLR 32 23 59% 37 75.97 0.0
04 13:35 NE 11 16.09 Fair CLR 32 22 55% 36 75.97 0.0
04 13:15 NE 15 16.09 Fair CLR 32 22 55% 36 75.97 0.0
04 12:55 N 13 16.09 Fair CLR 32 22 55% 36 75.97 0.0
04 12:35 N 9 16.09 Fair CLR 32 22 55% 36 75.97 0.0
04 12:15 N 13 16.09 Fair CLR 31 22 59% 35 75.97 0.0
04 11:55 N 6 16.09 Fair CLR 31 23 62% 35 75.97 0.0
04 11:35 N 6 16.09 Fair CLR 30 23 66% 34 75.97 0.0
04 11:15 NW 11 16.09 Fair CLR 29 23 70% 33 75.95 0.0
04 10:55 N 11 16.09 Fair CLR 29 23 70% 33 75.95 0.0
04 10:35 N 9 16.09 Fair CLR 29 22 66% 32 75.92 0.0
04 10:15 N 9 16.09 Fair CLR 28 22 70% 31 75.92 0.0
04 09:55 N 6 16.09 Fair CLR 27 22 74% 29 75.9 0.0
04 09:35 Calm 16.09 Fair CLR 27 22 74% 29 75.9 0.0
04 09:15 Calm 16.09 Fair CLR 26 22 79% 28 75.92 0.0
04 08:55 Calm 16.09 Fair CLR 26 22 79% 28 75.9 0.0
04 08:35 Calm 16.09 Fair CLR 25 23 89% 26 75.9 0.0
04 08:15 S 6 16.09 Fair CLR 24 22 89% 24 75.9 0.0
04 07:55 Calm 16.09 Fair CLR 23 22 94% 75.87 0.0
04 07:35 Calm 16.09 Fair CLR 22 21 94% 75.9 0.0
04 07:15 Calm 16.09 Fair CLR 22 21 94% 75.87 0.0
04 06:55 NW 9 11.27 Fair CLR 21 19 88% 75.87 0.0
04 06:35 Calm 16.09 Fair CLR 21 20 94% 75.82 0.0
04 06:15 Calm 16.09 Fair CLR 21 20 94% 75.82 0.0
04 05:55 W 6 16.09 Fair CLR 22 21 94% 75.82 0.0
04 05:35 W 7 16.09 Fair CLR 22 21 94% 75.79 0.0
04 05:15 SW 9 16.09 Fair CLR 22 22 100% 75.79 0.0
04 04:55 SW 6 16.09 Fair CLR 23 22 94% 75.79 0.0
04 04:35 Calm 16.09 Fair CLR 23 22 94% 75.79 0.0
04 04:15 Calm 16.09 Fair CLR 23 22 94% 75.79 0.0
04 03:55 SW 6 16.09 Fair CLR 24 22 89% 24 75.79 0.0
04 03:35 SW 7 16.09 Fair CLR 24 22 89% 24 75.77 0.0
04 03:15 SW 6 16.09 Fair CLR 24 22 89% 24 75.77 0.0
04 02:55 SW 7 16.09 Fair CLR 24 22 89% 24 75.77 0.0
04 02:35 S 7 16.09 Fair CLR 24 22 89% 24 75.79 0.0
04 02:15 SW 7 16.09 Fair CLR 24 22 89% 24 75.77 0.0
04 01:55 Calm 16.09 Fair CLR 23 22 94% 75.77 0.0
04 01:35 Calm 16.09 Fair CLR 24 23 94% 23 75.77 0.0
04 01:15 Calm 16.09 Fair CLR 24 22 89% 24 75.77 0.0
04 00:55 Calm 16.09 Fair CLR 24 23 94% 23 75.77 0.0
04 00:35 Calm 16.09 Fair CLR 25 23 89% 26 75.77 0.0
04 00:15 S 7 16.09 Fair CLR 26 23 84% 28 75.74 0.0
03 23:55 S 7 16.09 Fair CLR 26 23 84% 28 75.74 0.0
03 23:35 S 6 16.09 Fair CLR 26 23 84% 28 75.74 0.0
03 23:15 S 6 16.09 Fair CLR 27 23 79% 30 75.74 0.0
03 22:55 S 6 16.09 Fair CLR 27 23 79% 30 75.74 0.0
03 22:35 S 6 16.09 Fair CLR 27 23 79% 30 75.74 0.0
03 22:15 S 6 16.09 Fair CLR 27 23 79% 30 75.74 0.0
03 21:55 S 6 16.09 Fair CLR 27 23 79% 30 75.74 0.0
03 21:35 S 6 16.09 Fair CLR 27 23 79% 30 75.74 0.0
03 21:15 S 7 16.09 Fair CLR 28 23 74% 31 75.74 0.0
03 20:55 S 7 16.09 Fair CLR 28 23 74% 31 75.72 0.0
03 20:35 S 9 16.09 Fair CLR 28 23 74% 31 75.69 0.0
03 20:15 S 11 16.09 Fair CLR 29 23 70% 33 75.69 0.0
03 19:55 S 11 16.09 Fair CLR 29 23 70% 33 75.67 0.0
03 19:35 S 13 16.09 Fair CLR 30 23 66% 34 75.67 0.0
03 19:15 S 15 16.09 Fair CLR 31 23 62% 35 75.64 0.0
03 18:55 S 19 16.09 Fair CLR 31 23 62% 35 75.64 0.0
03 18:35 S 9 16.09 Fair CLR 31 23 62% 35 75.64 0.0
03 18:15 S 9 16.09 Fair CLR 31 23 62% 35 75.62 0.0
03 17:55 SW 11 16.09 Light Rain CLR 29 23 70% 33 75.64 0.0
03 17:35 S 13 16.09 Light Rain SCT060 28 23 74% 31 75.59 0.0
03 17:15 S 19 16.09 Fair CLR 29 22 66% 32 75.64 0.0
03 16:55 S 24 G 37 16.09 Fair CLR 31 22 59% 35 75.62 0.0
03 16:35 S 22 G 30 16.09 Fair CLR 31 22 59% 35 75.57 0.0
03 16:15 S 22 G 30 16.09 Fair CLR 30 22 62% 33 75.54 0.0
03 15:55 S 20 G 30 16.09 Fair CLR 31 22 59% 35 75.57 0.0
03 15:35 S 20 16.09 Fair CLR 30 22 62% 33 75.62 0.0
03 15:15 S 30 G 43 16.09 Fair CLR 31 21 55% 34 75.64 0.0
03 14:55 S 24 G 35 16.09 Fair CLR 31 21 55% 34 75.67 0.0
03 14:35 S 26 G 41 16.09 Fair CLR 31 21 55% 34 75.62 0.0
03 14:15 S 28 G 41 16.09 Fair CLR 31 21 55% 34 75.64 0.0
03 13:55 S 24 G 37 16.09 Thunderstorm in Vicinity CLR 31 21 55% 34 75.59 0.0
03 13:35 S 30 G 44 16.09 Fair CLR 31 21 55% 34 75.62 0.0
03 13:15 S 22 G 43 16.09 Fair CLR 30 21 59% 33 75.59 0.0
03 12:55 S 31 G 37 16.09 Fair CLR 31 21 55% 34 75.67 0.0
03 12:35 S 37 G 44 16.09 Fair and Breezy CLR 31 20 52% 33 75.69 0.0
03 12:15 S 24 G 35 16.09 Fair CLR 31 21 55% 34 75.67 0.0
03 11:55 S 26 G 35 16.09 Fair CLR 30 20 55% 32 75.69 0.0
03 11:35 S 24 G 39 16.09 Fair CLR 28 21 66% 30 75.69 0.0
03 11:15 S 24 G 46 16.09 Fair CLR 29 21 62% 31 75.69 0.0
03 10:55 S 28 G 39 16.09 Fair CLR 30 21 59% 33 75.67 0.0
03 10:35 S 24 G 43 16.09 Fair CLR 30 21 59% 33 75.69 0.0
03 10:15 S 28 G 37 16.09 Fair CLR 28 20 62% 30 75.67 0.0
03 09:55 S 20 G 31 16.09 Fair CLR 28 20 62% 30 75.69 0.0
03 09:35 S 22 G 39 16.09 Fair CLR 27 20 66% 29 75.69 0.0
03 09:15 S 20 G 26 16.09 Fair CLR 27 19 62% 28 75.69 0.0
03 08:55 S 15 G 28 16.09 Fair CLR 26 19 65% 27 75.72 0.0
03 08:35 SE 22 G 30 16.09 Fair CLR 25 19 69% 26 75.69 0.0
03 08:15 SE 26 16.09 Fair CLR 25 19 69% 26 75.72 0.0
03 07:55 SE 17 16.09 Fair CLR 24 18 69% 25 75.72 0.0
03 07:35 SE 13 16.09 Fair CLR 23 18 74% 75.72 0.0
03 07:15 SE 17 G 28 16.09 Fair CLR 23 18 74% 75.72 0.0
03 06:55 SE 19 G 39 16.09 Fair CLR 23 18 74% 75.72 0.0
03 06:35 SE 24 16.09 Fair CLR 23 18 74% 75.72 0.0
03 06:15 SE 19 16.09 Fair CLR 23 18 74% 75.72 0.0
03 05:55 SE 15 16.09 Fair CLR 23 18 74% 75.72 0.0
03 05:35 SE 9 16.09 Fair CLR 23 18 74% 75.72 0.0
03 05:15 SE 11 16.09 Fair CLR 24 18 69% 25 75.72 0.0
03 04:55 SE 13 16.09 Partly Cloudy SCT110 24 18 69% 25 75.72 0.0
03 04:35 SE 13 16.09 Partly Cloudy SCT110 24 18 69% 25 75.72 0.0
03 04:15 S 17 16.09 Mostly Cloudy BKN100 24 18 69% 25 75.74 0.0
03 03:55 S 13 16.09 Light Rain BKN100 24 18 69% 25 75.74 0.0
03 03:35 S 13 G 26 16.09 Thunderstorm Light Rain BKN100 26 16 54% 27 75.77 0.0
03 03:15 SW 11 16.09 Partly Cloudy SCT100 24 17 65% 25 75.77 0.0
03 02:55 S 17 G 28 16.09 Fair CLR 26 18 61% 27 75.77 0.0
03 02:35 SW 17 16.09 Partly Cloudy SCT095 26 21 74% 27 75.79 0.0
03 02:15 S 11 16.09 Thunderstorm in Vicinity SCT095 25 23 89% 26 75.82 0.0
03 01:55 S 6 16.09 Fair CLR 24 23 94% 23 75.79 0.0
03 01:35 Calm 16.09 Fair CLR 23 22 94% 75.79 0.0
03 01:15 Calm 16.09 Fair CLR 24 22 89% 24 75.77 0.0
03 00:55 Calm 16.09 Fair CLR 23 22 94% 75.77 0.0
03 00:35 Calm 16.09 Fair CLR 23 22 94% 75.79 0.0
03 00:15 Calm 16.09 Fair CLR 24 22 89% 24 75.79 0.0
02 23:55 SE 6 16.09 Fair CLR 24 22 89% 24 75.79 0.0
02 23:35 SE 6 16.09 Fair CLR 24 22 89% 24 75.82 0.0
02 23:15 Calm 16.09 Fair CLR 24 23 94% 23 75.82 0.0
02 22:55 Calm 16.09 Fair CLR 24 22 89% 24 75.82 0.0
02 22:35 Calm 16.09 Fair CLR 24 22 89% 24 75.82 0.0
02 22:15 Calm 16.09 Fair CLR 24 22 89% 24 75.82 0.0
02 21:55 Calm 16.09 Fair CLR 24 22 89% 24 75.82 0.0
02 21:35 Calm 16.09 Fair CLR 24 22 89% 24 75.82 0.0
02 21:15 Calm 16.09 Fair CLR 26 22 79% 28 75.82 0.0
02 20:55 Calm 16.09 Fair CLR 26 22 79% 28 75.82 0.0
02 20:35 Calm 16.09 Fair CLR 26 22 79% 28 75.79 0.0
02 20:15 Calm 16.09 Fair CLR 27 22 74% 29 75.79 0.0
02 19:55 SE 6 16.09 Fair CLR 28 22 70% 31 75.77 0.0
02 19:35 SE 7 16.09 Fair CLR 29 21 62% 31 75.77 0.0
Date Time (cdt) Wind (kph) Vis. (km) Weather Sky Cond. Air Dwpt Max. Min. Relative Humidity Wind Chill (°C) Heat Index (°C) altimeter (cm) sea level (mb) 1 hr 3 hr 6 hr
6 hour
Temperature (ºC) Pressure Precipitation (cm)